Flight Track Log - Related Links

Times and Time Zones

All times are in EST time to prevent confusion due to time zone crossing. See the SKW4530 flight status page for this flight to view local times or setup timezone preferences in your user account.

Time Position Orientation Groundspeed Altitude Reporting Facility
EST Latitude Longitude Course Direction KTS MPH feet Rate Location/Type
Fri 10:02:22 AM 33.9317 -118.4447 40° Northeast 204 235 1,800  Level Los Angeles Center
Fri 10:03:23 AM 33.8833 -118.5086 228° Southwest 268 308 4,100 2,780 Climbing Los Angeles Center
Fri 10:04:00 AM 33.6665 -118.4162 116° Southeast  Level FlightAware Approximate
Fri 10:04:25 AM 33.8092 -118.5197 187° South 288 331 7,500  Level Los Angeles Center
Fri 10:05:00 AM 33.6333 -118.3063 90° East  Level FlightAware Approximate
Fri 10:05:27 AM 33.7097 -118.5103 175° South 313 360 10,600  Level Los Angeles Center
Fri 10:06:00 AM 33.6333 -118.1873 90° East  Level FlightAware Approximate
Fri 10:06:28 AM 33.6758 -118.4178 114° Southeast 319 367 12,700  Level Los Angeles Center
Fri 10:07:00 AM 33.7018 -118.1148 40° Northeast  Level FlightAware Approximate
Fri 10:07:30 AM 33.7008 -118.3186 73° East 319 367 15,000  Level Los Angeles Center
Fri 10:08:32 AM 33.7319 -118.2194 69° East 326 375 17,900 2,537 Climbing Los Angeles Center
Fri 10:09:33 AM 33.7697 -118.0972 70° East 327 376 20,200 2,439 Climbing Los Angeles Center
Fri 10:10:35 AM 33.8253 -118.0175 50° Northeast 314 361 22,900 2,661 Climbing Los Angeles Center
Fri 10:11:37 AM 33.8922 -117.9558 37° Northeast 306 352 25,700 2,000 Climbing Los Angeles Center
Fri 10:12:38 AM 33.9519 -117.9019 37° Northeast 276 318 27,000 634 Climbing Los Angeles Center
Fri 10:13:40 AM 34.0119 -117.8481 37° Northeast 271 312 27,000  Level Los Angeles Center
Fri 10:14:42 AM 34.0711 -117.7942 37° Northeast 269 310 27,000  Level Los Angeles Center
Fri 10:15:44 AM 34.1358 -117.7150 45° Northeast 278 320 27,000  Level Los Angeles Center
Fri 10:16:45 AM 34.1881 -117.6428 49° Northeast 285 328 27,000  Level Los Angeles Center
Fri 10:17:47 AM 34.2403 -117.5714 48° Northeast 285 328 27,000  Level Los Angeles Center
Fri 10:18:49 AM 34.2933 -117.5008 48° Northeast 284 327 27,000  Level Los Angeles Center
Fri 10:19:51 AM 34.3447 -117.4297 49° Northeast 282 325 27,000  Level Los Angeles Center
Fri 10:20:53 AM 34.3997 -117.3556 48° Northeast 284 327 27,000  Level Los Angeles Center
Fri 10:21:55 AM 34.4558 -117.2781 49° Northeast 301 346 27,000  Level Los Angeles Center
Fri 10:22:56 AM 34.5153 -117.1950 49° Northeast 321 369 27,000  Level Los Angeles Center
Fri 10:23:58 AM 34.5756 -117.1119 49° Northeast 327 376 27,000  Level Los Angeles Center
Fri 10:25:00 AM 34.6478 -117.0133 48° Northeast 327 376 27,000  Level Los Angeles Center
Fri 10:26:02 AM 34.7067 -116.9306 49° Northeast 326 375 27,000  Level Los Angeles Center
Fri 10:27:04 AM 34.7658 -116.8483 49° Northeast 324 373 27,000 -48 Level Los Angeles Center
Fri 10:28:06 AM 34.8253 -116.7678 48° Northeast 322 371 26,900 -634 Descending Los Angeles Center
Fri 10:29:07 AM 34.8828 -116.6858 49° Northeast 320 368 25,700 -1,171 Descending Los Angeles Center
Fri 10:30:09 AM 34.9419 -116.6036 49° Northeast 322 371 24,500 -823 Descending Los Angeles Center
Fri 10:31:11 AM 35.0161 -116.5069 47° Northeast 326 375 24,000 -242 Descending Los Angeles Center
Fri 10:32:13 AM 35.0811 -116.4272 45° Northeast 330 380 24,000  Level Los Angeles Center
Fri 10:33:15 AM 35.1433 -116.3486 46° Northeast 325 374 24,000  Level Los Angeles Center
Fri 10:34:17 AM 35.2069 -116.2711 45° Northeast 324 373 24,000  Level Los Angeles Center
Fri 10:35:19 AM 35.2697 -116.1911 46° Northeast 328 377 24,000  Level Los Angeles Center
Fri 10:36:20 AM 35.3328 -116.1108 46° Northeast 330 380 24,000 -98 Level Los Angeles Center
Fri 10:37:22 AM 35.4081 -116.0147 46° Northeast 326 375 23,800 -1,452 Descending Los Angeles Center
Fri 10:38:24 AM 35.4714 -115.9375 45° Northeast 322 371 21,000 -2,810 Descending Los Angeles Center
Fri 10:38:41 AM 35.4961 -115.9144 37° Northeast 339 390 20,100 -3,000 Descending Los Angeles Center
Fri 10:39:26 AM 35.5403 -115.8478 51° Northeast 330 380 17,900 -2,925 Descending Los Angeles Center
Fri 10:40:01 AM 35.5789 -115.8064 41° Northeast 328 377 16,200 -2,710 Descending Los Angeles Center
Fri 10:40:28 AM 35.6042 -115.7686 51° Northeast 328 377 15,100 -2,300 Descending Los Angeles Center
Fri 10:41:01 AM 35.6364 -115.7219 50° Northeast 332 382 13,900 -1,645 Descending Los Angeles Center
Fri 10:41:30 AM 35.6500 -115.6767 70° East 320 368 13,400 -1,377 Descending Los Angeles Center
Fri 10:42:02 AM 35.6719 -115.6261 62° Northeast 303 349 12,500 -1,574 Descending Los Angeles Center
Fri 10:42:31 AM 35.6867 -115.5892 64° Northeast 296 341 11,800 -1,967 Descending Los Angeles Center
Fri 10:43:03 AM 35.7111 -115.5367 60° Northeast 284 327 10,500 -1,645 Descending Los Angeles Center
Fri 10:43:33 AM 35.7275 -115.4964 63° Northeast 285 328 10,100 -545 Descending Los Angeles Center
Fri 10:43:58 AM 35.7431 -115.4656 58° Northeast 271 312 10,000 -387 Descending Los Angeles Center
Fri 10:44:35 AM 35.7622 -115.4233 61° Northeast 246 283 9,700 -1,182 Descending Los Angeles Center
Fri 10:45:04 AM 35.7783 -115.3878 61° Northeast 232 267 8,700 -1,839 Descending Los Angeles Center
Fri 10:45:37 AM 35.7944 -115.3492 63° Northeast 230 265 7,800 -1,377 Descending Los Angeles Center
Fri 10:46:05 AM 35.8119 -115.3239 50° Northeast 213 245 7,300 -774 Descending Los Angeles Center
Fri 10:46:39 AM 35.8367 -115.3072 29° Northeast 199 229 7,000 -295 Descending Los Angeles Center
Fri 10:47:06 AM 35.8617 -115.2944 22° Northeast 195 224 7,000 -197 Level Los Angeles Center
Fri 10:47:40 AM 35.8897 -115.2767 27° Northeast 195 224 6,800 -436 Descending Los Angeles Center
Fri 10:48:01 AM 35.9039 -115.2700 21° North 178 205 6,600 -774 Descending Los Angeles Center
Fri 10:48:42 AM 35.9325 -115.2517 27° Northeast 172 198 6,000 -929 Descending Los Angeles Center
Fri 10:49:25 AM 35.9631 -115.2347 24° Northeast 181 208 5,300 -968 Descending Los Angeles Center
Fri 10:49:44 AM 35.9758 -115.2264 28° Northeast 171 197 5,000 -1,135 Descending Los Angeles Center
Fri 10:50:02 AM 35.9883 -115.2211 19° North 168 193 4,600 -1,161 Descending Los Angeles Center
Fri 10:50:46 AM 36.0144 -115.2036 28° Northeast 149 171 3,800 -986 Descending Los Angeles Center
Fri 10:51:15 AM 36.0283 -115.1972 20° North 129 148 3,400 -787 Descending Los Angeles Center
Fri 10:51:47 AM 36.0461 -115.1864 26° Northeast 130 150 3,000 -727 Descending Los Angeles Center
Fri 10:52:21 AM 36.0631 -115.1778 22° Northeast 123 142 2,600 -774 Descending Los Angeles Center
Fri 10:52:49 AM 36.0769 -115.1683 29° Northeast 123 142 2,200 -857 Descending Los Angeles Center

Login

Don't have an account? Register now (free) for customized features, flight alerts, and more!